sensor_id;sensor_type;location;lat;lon;timestamp;pressure;altitude;pressure_sealevel;temperature;humidity
55191;BME280;41070;50.360;18.742;2022-11-27T00:02:10;99954.21;;;3.86;95.33
55191;BME280;41070;50.360;18.742;2022-11-27T00:04:40;99950.46;;;3.87;95.27
55191;BME280;41070;50.360;18.742;2022-11-27T00:07:09;99945.54;;;3.88;95.17
55191;BME280;41070;50.360;18.742;2022-11-27T00:09:48;99946.86;;;3.91;95.18
55191;BME280;41070;50.360;18.742;2022-11-27T00:12:19;99949.83;;;3.92;95.17
55191;BME280;41070;50.360;18.742;2022-11-27T00:14:54;99949.83;;;3.91;95.25
55191;BME280;41070;50.360;18.742;2022-11-27T00:17:25;99952.59;;;3.95;95.36
55191;BME280;41070;50.360;18.742;2022-11-27T00:23:14;99951.63;;;3.89;94.93
55191;BME280;41070;50.360;18.742;2022-11-27T00:26:13;99952.11;;;3.88;95.05
55191;BME280;41070;50.360;18.742;2022-11-27T00:29:09;99954.34;;;3.92;95.50
55191;BME280;41070;50.360;18.742;2022-11-27T00:31:56;99956.40;;;3.96;95.39
55191;BME280;41070;50.360;18.742;2022-11-27T00:34:41;99952.48;;;3.98;95.19
55191;BME280;41070;50.360;18.742;2022-11-27T00:37:40;99955.29;;;3.97;95.15
55191;BME280;41070;50.360;18.742;2022-11-27T00:43:39;99958.09;;;3.93;95.11
55191;BME280;41070;50.360;18.742;2022-11-27T00:46:43;99961.33;;;3.94;95.04
55191;BME280;41070;50.360;18.742;2022-11-27T00:49:19;99958.83;;;3.92;94.72
55191;BME280;41070;50.360;18.742;2022-11-27T01:02:22;99962.59;;;3.85;94.39
55191;BME280;41070;50.360;18.742;2022-11-27T01:05:08;99960.05;;;3.86;94.65
55191;BME280;41070;50.360;18.742;2022-11-27T01:07:47;99960.38;;;3.87;94.83
55191;BME280;41070;50.360;18.742;2022-11-27T01:10:29;99962.91;;;3.94;95.51
55191;BME280;41070;50.360;18.742;2022-11-27T01:13:03;99961.86;;;3.96;94.64
55191;BME280;41070;50.360;18.742;2022-11-27T01:18:43;99960.42;;;3.87;94.06
55191;BME280;41070;50.360;18.742;2022-11-27T01:21:33;99959.83;;;3.78;94.41
55191;BME280;41070;50.360;18.742;2022-11-27T01:24:15;99956.29;;;3.81;94.86
55191;BME280;41070;50.360;18.742;2022-11-27T01:27:08;99956.02;;;3.78;94.58
55191;BME280;41070;50.360;18.742;2022-11-27T01:30:07;99953.05;;;3.82;94.63
55191;BME280;41070;50.360;18.742;2022-11-27T01:33:15;99951.36;;;3.81;94.26
55191;BME280;41070;50.360;18.742;2022-11-27T01:36:01;99953.20;;;3.83;94.52
55191;BME280;41070;50.360;18.742;2022-11-27T01:38:53;99954.70;;;3.84;94.25
55191;BME280;41070;50.360;18.742;2022-11-27T01:41:44;99951.41;;;3.81;94.02
55191;BME280;41070;50.360;18.742;2022-11-27T01:44:48;99948.77;;;3.77;94.15
55191;BME280;41070;50.360;18.742;2022-11-27T01:48:21;99956.30;;;3.76;94.17
55191;BME280;41070;50.360;18.742;2022-11-27T01:51:24;99955.69;;;3.68;93.72
55191;BME280;41070;50.360;18.742;2022-11-27T01:54:28;99950.65;;;3.58;93.94
55191;BME280;41070;50.360;18.742;2022-11-27T01:57:23;99947.15;;;3.57;94.33
55191;BME280;41070;50.360;18.742;2022-11-27T02:00:54;99949.96;;;3.57;94.27
55191;BME280;41070;50.360;18.742;2022-11-27T02:03:59;99957.14;;;3.56;94.35
55191;BME280;41070;50.360;18.742;2022-11-27T02:10:05;99954.18;;;3.50;94.24
55191;BME280;41070;50.360;18.742;2022-11-27T02:30:31;99955.30;;;3.54;94.49
55191;BME280;41070;50.360;18.742;2022-11-27T02:43:47;99959.45;;;3.71;94.77
55191;BME280;41070;50.360;18.742;2022-11-27T02:47:56;99957.75;;;3.72;94.53
55191;BME280;41070;50.360;18.742;2022-11-27T02:54:20;99960.62;;;3.73;94.46
55191;BME280;41070;50.360;18.742;2022-11-27T03:15:34;99967.41;;;3.84;94.18
55191;BME280;41070;50.360;18.742;2022-11-27T03:21:13;99968.90;;;3.84;94.15
55191;BME280;41070;50.360;18.742;2022-11-27T03:23:48;99967.79;;;3.86;94.61
55191;BME280;41070;50.360;18.742;2022-11-27T03:26:26;99965.67;;;3.88;94.57
55191;BME280;41070;50.360;18.742;2022-11-27T03:36:22;99956.03;;;3.95;94.57
55191;BME280;41070;50.360;18.742;2022-11-27T03:39:11;99958.95;;;3.94;94.49
55191;BME280;41070;50.360;18.742;2022-11-27T03:52:08;99960.90;;;4.01;94.33
55191;BME280;41070;50.360;18.742;2022-11-27T04:02:56;99959.73;;;4.01;94.37
55191;BME280;41070;50.360;18.742;2022-11-27T04:05:46;99957.88;;;3.98;94.16
55191;BME280;41070;50.360;18.742;2022-11-27T04:12:08;99959.46;;;3.91;94.10
55191;BME280;41070;50.360;18.742;2022-11-27T04:14:41;99955.70;;;3.91;94.43
55191;BME280;41070;50.360;18.742;2022-11-27T04:17:15;99953.96;;;3.90;94.37
55191;BME280;41070;50.360;18.742;2022-11-27T04:19:56;99954.27;;;3.91;94.16
55191;BME280;41070;50.360;18.742;2022-11-27T04:22:36;99959.30;;;3.88;94.13
55191;BME280;41070;50.360;18.742;2022-11-27T04:25:17;99961.90;;;3.80;93.76
55191;BME280;41070;50.360;18.742;2022-11-27T04:32:12;99961.52;;;3.77;94.40
55191;BME280;41070;50.360;18.742;2022-11-27T04:34:56;99962.21;;;3.80;94.56
55191;BME280;41070;50.360;18.742;2022-11-27T04:48:59;99970.80;;;3.87;94.41
55191;BME280;41070;50.360;18.742;2022-11-27T04:51:27;99970.74;;;3.86;94.30
55191;BME280;41070;50.360;18.742;2022-11-27T04:55:22;99965.03;;;3.89;94.29
55191;BME280;41070;50.360;18.742;2022-11-27T05:15:49;99946.64;;;3.70;94.02
55191;BME280;41070;50.360;18.742;2022-11-27T05:22:45;99943.61;;;3.61;93.95
55191;BME280;41070;50.360;18.742;2022-11-27T05:25:46;99947.25;;;3.55;93.66
55191;BME280;41070;50.360;18.742;2022-11-27T05:33:12;99948.77;;;3.45;93.74
55191;BME280;41070;50.360;18.742;2022-11-27T05:39:10;99939.23;;;3.40;93.53
55191;BME280;41070;50.360;18.742;2022-11-27T05:46:39;99941.76;;;3.34;93.71
55191;BME280;41070;50.360;18.742;2022-11-27T05:50:00;99940.96;;;3.32;93.58
55191;BME280;41070;50.360;18.742;2022-11-27T05:53:01;99945.30;;;3.31;93.70
55191;BME280;41070;50.360;18.742;2022-11-27T05:59:05;99943.54;;;3.28;93.75
55191;BME280;41070;50.360;18.742;2022-11-27T06:06:33;99938.48;;;3.21;93.54
55191;BME280;41070;50.360;18.742;2022-11-27T06:22:29;99934.54;;;3.09;93.91
55191;BME280;41070;50.360;18.742;2022-11-27T06:25:02;99935.00;;;3.06;94.04
55191;BME280;41070;50.360;18.742;2022-11-27T06:35:07;99938.05;;;3.11;94.47
55191;BME280;41070;50.360;18.742;2022-11-27T06:38:41;99941.33;;;3.16;94.62
55191;BME280;41070;50.360;18.742;2022-11-27T06:42:13;99947.85;;;3.18;94.43
55191;BME280;41070;50.360;18.742;2022-11-27T06:45:35;99955.00;;;3.21;94.64
55191;BME280;41070;50.360;18.742;2022-11-27T06:48:35;99953.27;;;3.28;94.96
55191;BME280;41070;50.360;18.742;2022-11-27T06:51:48;99959.02;;;3.34;94.61
55191;BME280;41070;50.360;18.742;2022-11-27T06:54:25;99952.30;;;3.34;94.17
55191;BME280;41070;50.360;18.742;2022-11-27T06:57:14;99954.72;;;3.35;94.70
55191;BME280;41070;50.360;18.742;2022-11-27T07:00:13;99955.16;;;3.40;94.70
55191;BME280;41070;50.360;18.742;2022-11-27T07:03:04;99959.41;;;3.44;94.64
55191;BME280;41070;50.360;18.742;2022-11-27T07:06:01;99962.05;;;3.47;94.38
55191;BME280;41070;50.360;18.742;2022-11-27T07:08:49;99957.61;;;3.48;94.21
55191;BME280;41070;50.360;18.742;2022-11-27T07:12:11;99962.34;;;3.53;94.44
55191;BME280;41070;50.360;18.742;2022-11-27T07:23:16;99966.74;;;3.62;93.96
55191;BME280;41070;50.360;18.742;2022-11-27T07:25:54;99956.58;;;3.59;93.90
55191;BME280;41070;50.360;18.742;2022-11-27T07:29:30;99958.27;;;3.57;93.98
55191;BME280;41070;50.360;18.742;2022-11-27T07:32:47;99963.89;;;3.62;94.57
55191;BME280;41070;50.360;18.742;2022-11-27T07:36:25;99962.77;;;3.64;94.16
55191;BME280;41070;50.360;18.742;2022-11-27T07:39:42;99961.29;;;3.63;93.82
55191;BME280;41070;50.360;18.742;2022-11-27T07:42:57;99967.78;;;3.54;93.41
55191;BME280;41070;50.360;18.742;2022-11-27T07:46:30;99975.47;;;3.60;94.46
55191;BME280;41070;50.360;18.742;2022-11-27T07:49:53;99974.01;;;3.67;94.14
55191;BME280;41070;50.360;18.742;2022-11-27T07:53:13;99976.92;;;3.76;94.34
55191;BME280;41070;50.360;18.742;2022-11-27T07:59:16;99978.42;;;3.79;93.70
55191;BME280;41070;50.360;18.742;2022-11-27T08:01:54;99979.44;;;3.83;93.74
55191;BME280;41070;50.360;18.742;2022-11-27T08:04:26;99984.14;;;3.84;93.66
55191;BME280;41070;50.360;18.742;2022-11-27T08:06:59;99980.02;;;3.87;93.71
55191;BME280;41070;50.360;18.742;2022-11-27T08:09:37;99980.34;;;3.89;93.21
55191;BME280;41070;50.360;18.742;2022-11-27T08:15:14;99982.02;;;3.79;92.76
55191;BME280;41070;50.360;18.742;2022-11-27T08:23:28;99981.66;;;3.89;93.33
55191;BME280;41070;50.360;18.742;2022-11-27T08:35:55;99992.09;;;4.01;93.55
55191;BME280;41070;50.360;18.742;2022-11-27T08:38:56;99987.77;;;4.12;93.54
55191;BME280;41070;50.360;18.742;2022-11-27T08:50:02;99990.14;;;4.25;92.55
55191;BME280;41070;50.360;18.742;2022-11-27T08:52:43;99995.02;;;4.28;92.47
55191;BME280;41070;50.360;18.742;2022-11-27T08:58:10;99991.84;;;4.33;92.55
55191;BME280;41070;50.360;18.742;2022-11-27T09:05:20;99987.95;;;4.45;91.86
55191;BME280;41070;50.360;18.742;2022-11-27T09:08:04;99985.63;;;4.46;91.79
55191;BME280;41070;50.360;18.742;2022-11-27T09:14:01;99982.59;;;4.56;92.18
55191;BME280;41070;50.360;18.742;2022-11-27T09:16:45;99985.91;;;4.64;92.00
55191;BME280;41070;50.360;18.742;2022-11-27T09:19:19;99982.14;;;4.67;91.67
55191;BME280;41070;50.360;18.742;2022-11-27T09:21:48;99984.20;;;4.72;92.16
55191;BME280;41070;50.360;18.742;2022-11-27T09:24:30;99984.39;;;4.77;91.86
55191;BME280;41070;50.360;18.742;2022-11-27T09:39:15;99979.17;;;5.01;90.60
55191;BME280;41070;50.360;18.742;2022-11-27T09:42:43;99981.14;;;5.03;90.65
55191;BME280;41070;50.360;18.742;2022-11-27T09:45:14;99976.62;;;5.04;90.09
55191;BME280;41070;50.360;18.742;2022-11-27T09:47:54;99968.95;;;5.12;90.40
55191;BME280;41070;50.360;18.742;2022-11-27T09:50:49;99960.89;;;5.20;90.50
55191;BME280;41070;50.360;18.742;2022-11-27T10:00:28;99956.71;;;5.18;89.25
55191;BME280;41070;50.360;18.742;2022-11-27T10:03:13;99944.30;;;5.17;89.35
55191;BME280;41070;50.360;18.742;2022-11-27T10:11:18;99934.02;;;5.27;89.11
55191;BME280;41070;50.360;18.742;2022-11-27T10:20:56;99930.10;;;5.33;88.94
55191;BME280;41070;50.360;18.742;2022-11-27T10:44:17;99921.95;;;5.37;89.09
55191;BME280;41070;50.360;18.742;2022-11-27T10:46:47;99920.39;;;5.31;88.73
55191;BME280;41070;50.360;18.742;2022-11-27T10:49:16;99919.83;;;5.28;89.01
55191;BME280;41070;50.360;18.742;2022-11-27T10:51:44;99918.48;;;5.31;89.36
55191;BME280;41070;50.360;18.742;2022-11-27T10:54:29;99910.30;;;5.33;89.40
55191;BME280;41070;50.360;18.742;2022-11-27T11:04:48;99908.92;;;5.23;88.84
55191;BME280;41070;50.360;18.742;2022-11-27T11:07:29;99908.70;;;5.22;89.15
55191;BME280;41070;50.360;18.742;2022-11-27T11:10:42;99904.91;;;5.27;88.99
55191;BME280;41070;50.360;18.742;2022-11-27T11:19:42;99896.40;;;5.31;88.70
55191;BME280;41070;50.360;18.742;2022-11-27T11:33:11;99879.25;;;5.56;88.58
55191;BME280;41070;50.360;18.742;2022-11-27T11:35:49;99876.14;;;5.54;88.46
55191;BME280;41070;50.360;18.742;2022-11-27T11:38:44;99870.92;;;5.53;88.39
55191;BME280;41070;50.360;18.742;2022-11-27T11:41:22;99871.20;;;5.53;88.15
55191;BME280;41070;50.360;18.742;2022-11-27T11:44:15;99867.88;;;5.56;88.20
55191;BME280;41070;50.360;18.742;2022-11-27T11:46:51;99867.20;;;5.61;87.85
55191;BME280;41070;50.360;18.742;2022-11-27T11:49:23;99866.30;;;5.61;87.59
55191;BME280;41070;50.360;18.742;2022-11-27T12:00:51;99855.05;;;5.74;87.66
55191;BME280;41070;50.360;18.742;2022-11-27T12:17:22;99838.05;;;5.67;86.89
55191;BME280;41070;50.360;18.742;2022-11-27T12:24:06;99838.27;;;5.67;86.82
55191;BME280;41070;50.360;18.742;2022-11-27T12:42:19;99840.86;;;5.74;86.61
55191;BME280;41070;50.360;18.742;2022-11-27T12:44:59;99837.02;;;5.71;86.61
55191;BME280;41070;50.360;18.742;2022-11-27T12:59:37;99834.43;;;6.10;85.67
55191;BME280;41070;50.360;18.742;2022-11-27T14:11:44;99818.27;;;4.69;86.40
55191;BME280;41070;50.360;18.742;2022-11-27T14:23:50;99817.80;;;4.68;87.10
55191;BME280;41070;50.360;18.742;2022-11-27T14:26:27;99817.65;;;4.67;87.21
55191;BME280;41070;50.360;18.742;2022-11-27T14:29:10;99817.58;;;4.70;87.26
55191;BME280;41070;50.360;18.742;2022-11-27T14:31:42;99817.41;;;4.72;87.20
55191;BME280;41070;50.360;18.742;2022-11-27T14:34:32;99815.27;;;4.69;87.01
55191;BME280;41070;50.360;18.742;2022-11-27T14:40:45;99818.09;;;4.63;87.06
55191;BME280;41070;50.360;18.742;2022-11-27T14:43:25;99821.88;;;4.61;87.42
55191;BME280;41070;50.360;18.742;2022-11-27T14:46:32;99816.98;;;4.58;87.45
55191;BME280;41070;50.360;18.742;2022-11-27T15:00:34;99810.86;;;4.44;87.64
55191;BME280;41070;50.360;18.742;2022-11-27T15:03:39;99803.67;;;4.37;87.65
55191;BME280;41070;50.360;18.742;2022-11-27T15:06:16;99800.95;;;4.29;87.66
55191;BME280;41070;50.360;18.742;2022-11-27T15:08:51;99793.06;;;4.26;87.91
55191;BME280;41070;50.360;18.742;2022-11-27T15:12:07;99792.08;;;4.21;88.04
55191;BME280;41070;50.360;18.742;2022-11-27T15:20:33;99791.81;;;4.05;87.94
55191;BME280;41070;50.360;18.742;2022-11-27T15:44:56;99772.30;;;3.67;88.29
55191;BME280;41070;50.360;18.742;2022-11-27T16:38:12;99731.06;;;3.24;88.70
55191;BME280;41070;50.360;18.742;2022-11-27T16:41:27;99730.91;;;3.22;88.46
55191;BME280;41070;50.360;18.742;2022-11-27T16:44:10;99726.09;;;3.21;88.55
55191;BME280;41070;50.360;18.742;2022-11-27T16:59:51;99710.02;;;2.99;88.02
55191;BME280;41070;50.360;18.742;2022-11-27T17:18:01;99709.80;;;2.59;87.56
55191;BME280;41070;50.360;18.742;2022-11-27T17:20:34;99705.35;;;2.50;87.69
55191;BME280;41070;50.360;18.742;2022-11-27T17:23:36;99708.20;;;2.46;87.73
55191;BME280;41070;50.360;18.742;2022-11-27T17:26:17;99706.54;;;2.38;87.86
55191;BME280;41070;50.360;18.742;2022-11-27T17:31:46;99699.09;;;2.34;88.06
55191;BME280;41070;50.360;18.742;2022-11-27T17:34:32;99702.35;;;2.31;88.19
55191;BME280;41070;50.360;18.742;2022-11-27T17:37:04;99699.86;;;2.30;88.37
55191;BME280;41070;50.360;18.742;2022-11-27T17:39:39;99696.54;;;2.29;88.62
55191;BME280;41070;50.360;18.742;2022-11-27T17:42:13;99696.43;;;2.30;88.57
55191;BME280;41070;50.360;18.742;2022-11-27T17:44:47;99690.52;;;2.26;88.26
55191;BME280;41070;50.360;18.742;2022-11-27T17:47:30;99695.66;;;2.20;88.05
55191;BME280;41070;50.360;18.742;2022-11-27T17:50:07;99690.62;;;2.12;87.81
55191;BME280;41070;50.360;18.742;2022-11-27T17:52:43;99688.44;;;2.04;87.93
55191;BME280;41070;50.360;18.742;2022-11-27T17:55:15;99693.27;;;2.00;87.74
55191;BME280;41070;50.360;18.742;2022-11-27T17:57:47;99699.95;;;1.93;87.80
55191;BME280;41070;50.360;18.742;2022-11-27T18:00:35;99699.94;;;1.88;87.73
55191;BME280;41070;50.360;18.742;2022-11-27T18:11:32;99699.89;;;1.79;88.24
55191;BME280;41070;50.360;18.742;2022-11-27T18:14:11;99697.20;;;1.78;88.20
55191;BME280;41070;50.360;18.742;2022-11-27T18:16:43;99697.45;;;1.77;88.61
55191;BME280;41070;50.360;18.742;2022-11-27T18:19:14;99694.83;;;1.79;88.50
55191;BME280;41070;50.360;18.742;2022-11-27T18:24:33;99692.04;;;1.84;88.79
55191;BME280;41070;50.360;18.742;2022-11-27T18:27:07;99686.19;;;1.86;89.12
55191;BME280;41070;50.360;18.742;2022-11-27T18:29:41;99679.83;;;1.91;89.44
55191;BME280;41070;50.360;18.742;2022-11-27T18:32:15;99674.62;;;1.97;89.61
55191;BME280;41070;50.360;18.742;2022-11-27T18:35:16;99666.14;;;2.03;89.41
55191;BME280;41070;50.360;18.742;2022-11-27T18:37:49;99661.20;;;2.06;89.36
55191;BME280;41070;50.360;18.742;2022-11-27T18:40:25;99664.05;;;2.07;89.24
55191;BME280;41070;50.360;18.742;2022-11-27T18:42:53;99657.65;;;2.08;89.32
55191;BME280;41070;50.360;18.742;2022-11-27T18:45:26;99656.14;;;2.10;89.27
55191;BME280;41070;50.360;18.742;2022-11-27T18:47:59;99653.70;;;2.09;89.04
55191;BME280;41070;50.360;18.742;2022-11-27T18:50:34;99654.29;;;2.08;89.36
55191;BME280;41070;50.360;18.742;2022-11-27T18:53:07;99650.78;;;2.05;89.28
55191;BME280;41070;50.360;18.742;2022-11-27T18:55:44;99647.58;;;2.09;89.26
55191;BME280;41070;50.360;18.742;2022-11-27T18:58:21;99634.00;;;2.08;89.28
55191;BME280;41070;50.360;18.742;2022-11-27T19:00:54;99626.11;;;2.04;88.90
55191;BME280;41070;50.360;18.742;2022-11-27T19:03:26;99619.23;;;1.97;88.83
55191;BME280;41070;50.360;18.742;2022-11-27T19:06:00;99619.59;;;1.90;89.06
55191;BME280;41070;50.360;18.742;2022-11-27T19:08:34;99619.68;;;1.85;89.07
55191;BME280;41070;50.360;18.742;2022-11-27T19:11:09;99623.25;;;1.83;89.17
55191;BME280;41070;50.360;18.742;2022-11-27T19:13:40;99621.89;;;1.82;89.56
55191;BME280;41070;50.360;18.742;2022-11-27T19:16:15;99615.04;;;1.81;89.28
55191;BME280;41070;50.360;18.742;2022-11-27T19:18:47;99611.58;;;1.79;89.10
55191;BME280;41070;50.360;18.742;2022-11-27T19:21:24;99611.95;;;1.75;89.28
55191;BME280;41070;50.360;18.742;2022-11-27T19:24:01;99616.52;;;1.74;89.39
55191;BME280;41070;50.360;18.742;2022-11-27T19:26:34;99616.36;;;1.73;89.47
55191;BME280;41070;50.360;18.742;2022-11-27T19:29:06;99612.88;;;1.72;89.45
55191;BME280;41070;50.360;18.742;2022-11-27T19:31:39;99614.04;;;1.73;89.40
55191;BME280;41070;50.360;18.742;2022-11-27T19:34:11;99608.61;;;1.71;89.57
55191;BME280;41070;50.360;18.742;2022-11-27T19:36:43;99606.80;;;1.72;89.49
55191;BME280;41070;50.360;18.742;2022-11-27T19:39:20;99603.19;;;1.66;89.08
55191;BME280;41070;50.360;18.742;2022-11-27T19:41:51;99600.86;;;1.64;89.24
55191;BME280;41070;50.360;18.742;2022-11-27T19:44:24;99603.29;;;1.64;89.28
55191;BME280;41070;50.360;18.742;2022-11-27T19:46:52;99603.02;;;1.64;89.38
55191;BME280;41070;50.360;18.742;2022-11-27T19:49:32;99601.24;;;1.64;89.35
55191;BME280;41070;50.360;18.742;2022-11-27T19:52:08;99598.42;;;1.61;89.27
55191;BME280;41070;50.360;18.742;2022-11-27T19:54:59;99603.64;;;1.58;88.92
55191;BME280;41070;50.360;18.742;2022-11-27T19:57:34;99604.77;;;1.52;88.95
55191;BME280;41070;50.360;18.742;2022-11-27T20:00:07;99604.02;;;1.49;88.95
55191;BME280;41070;50.360;18.742;2022-11-27T20:02:39;99600.80;;;1.47;89.40
55191;BME280;41070;50.360;18.742;2022-11-27T20:05:11;99604.23;;;1.47;89.21
55191;BME280;41070;50.360;18.742;2022-11-27T20:07:47;99601.48;;;1.46;89.25
55191;BME280;41070;50.360;18.742;2022-11-27T20:10:21;99601.58;;;1.45;89.24
55191;BME280;41070;50.360;18.742;2022-11-27T20:12:53;99602.95;;;1.44;89.22
55191;BME280;41070;50.360;18.742;2022-11-27T20:15:25;99605.05;;;1.43;89.09
55191;BME280;41070;50.360;18.742;2022-11-27T20:17:57;99602.23;;;1.40;89.39
55191;BME280;41070;50.360;18.742;2022-11-27T20:20:28;99603.66;;;1.39;89.42
55191;BME280;41070;50.360;18.742;2022-11-27T20:23:02;99601.02;;;1.37;89.34
55191;BME280;41070;50.360;18.742;2022-11-27T20:25:30;99603.98;;;1.38;89.51
55191;BME280;41070;50.360;18.742;2022-11-27T20:28:02;99599.84;;;1.36;89.36
55191;BME280;41070;50.360;18.742;2022-11-27T20:30:38;99595.83;;;1.33;89.38
55191;BME280;41070;50.360;18.742;2022-11-27T20:33:11;99598.11;;;1.35;89.44
55191;BME280;41070;50.360;18.742;2022-11-27T20:35:47;99599.20;;;1.34;89.14
55191;BME280;41070;50.360;18.742;2022-11-27T20:38:15;99590.17;;;1.31;89.08
55191;BME280;41070;50.360;18.742;2022-11-27T20:40:46;99591.48;;;1.31;89.40
55191;BME280;41070;50.360;18.742;2022-11-27T20:43:22;99588.95;;;1.28;89.41
55191;BME280;41070;50.360;18.742;2022-11-27T20:45:54;99591.72;;;1.25;88.96
55191;BME280;41070;50.360;18.742;2022-11-27T20:48:26;99589.87;;;1.22;89.03
55191;BME280;41070;50.360;18.742;2022-11-27T20:51:11;99592.77;;;1.22;89.22
55191;BME280;41070;50.360;18.742;2022-11-27T20:53:40;99592.07;;;1.21;88.87
55191;BME280;41070;50.360;18.742;2022-11-27T20:56:17;99591.27;;;1.20;89.02
55191;BME280;41070;50.360;18.742;2022-11-27T20:58:53;99586.52;;;1.18;88.99
55191;BME280;41070;50.360;18.742;2022-11-27T21:01:24;99591.27;;;1.20;89.41
55191;BME280;41070;50.360;18.742;2022-11-27T21:03:58;99586.25;;;1.16;89.16
55191;BME280;41070;50.360;18.742;2022-11-27T21:06:34;99582.45;;;1.16;89.26
55191;BME280;41070;50.360;18.742;2022-11-27T21:09:07;99582.45;;;1.18;89.26
55191;BME280;41070;50.360;18.742;2022-11-27T21:11:38;99580.52;;;1.18;89.01
55191;BME280;41070;50.360;18.742;2022-11-27T21:14:15;99578.39;;;1.19;89.38
55191;BME280;41070;50.360;18.742;2022-11-27T21:16:48;99576.04;;;1.21;89.22
55191;BME280;41070;50.360;18.742;2022-11-27T21:19:22;99573.09;;;1.21;89.20
55191;BME280;41070;50.360;18.742;2022-11-27T21:21:55;99569.55;;;1.20;89.31
55191;BME280;41070;50.360;18.742;2022-11-27T21:24:28;99560.85;;;1.20;89.65
55191;BME280;41070;50.360;18.742;2022-11-27T21:27:03;99552.50;;;1.17;89.32
55191;BME280;41070;50.360;18.742;2022-11-27T21:29:36;99549.59;;;1.14;89.29
55191;BME280;41070;50.360;18.742;2022-11-27T21:32:07;99544.80;;;1.12;89.73
55191;BME280;41070;50.360;18.742;2022-11-27T21:34:39;99538.39;;;1.09;89.52
55191;BME280;41070;50.360;18.742;2022-11-27T21:37:14;99533.87;;;1.04;89.82
55191;BME280;41070;50.360;18.742;2022-11-27T21:39:58;99530.48;;;0.99;89.72
55191;BME280;41070;50.360;18.742;2022-11-27T21:42:35;99525.67;;;0.96;89.84
55191;BME280;41070;50.360;18.742;2022-11-27T21:45:20;99519.11;;;0.93;90.15
55191;BME280;41070;50.360;18.742;2022-11-27T21:47:53;99513.00;;;0.92;90.10
55191;BME280;41070;50.360;18.742;2022-11-27T21:50:39;99505.45;;;0.92;89.91
55191;BME280;41070;50.360;18.742;2022-11-27T21:53:16;99495.80;;;0.88;90.19
55191;BME280;41070;50.360;18.742;2022-11-27T21:55:50;99494.83;;;0.86;90.54
55191;BME280;41070;50.360;18.742;2022-11-27T21:58:36;99490.28;;;0.83;90.18
55191;BME280;41070;50.360;18.742;2022-11-27T22:01:14;99486.94;;;0.78;90.62
55191;BME280;41070;50.360;18.742;2022-11-27T22:04:00;99488.26;;;0.77;90.76
55191;BME280;41070;50.360;18.742;2022-11-27T22:06:39;99483.24;;;0.75;90.98
55191;BME280;41070;50.360;18.742;2022-11-27T22:09:19;99486.77;;;0.75;90.69
55191;BME280;41070;50.360;18.742;2022-11-27T22:11:55;99482.30;;;0.76;90.97
55191;BME280;41070;50.360;18.742;2022-11-27T22:14:34;99481.92;;;0.76;90.66
55191;BME280;41070;50.360;18.742;2022-11-27T22:17:07;99483.23;;;0.76;91.00
55191;BME280;41070;50.360;18.742;2022-11-27T22:19:44;99482.02;;;0.74;90.83
55191;BME280;41070;50.360;18.742;2022-11-27T22:22:31;99478.36;;;0.73;91.25
55191;BME280;41070;50.360;18.742;2022-11-27T22:25:03;99474.43;;;0.75;91.25
55191;BME280;41070;50.360;18.742;2022-11-27T22:27:39;99474.50;;;0.76;91.06
55191;BME280;41070;50.360;18.742;2022-11-27T22:30:17;99475.70;;;0.77;91.42
55191;BME280;41070;50.360;18.742;2022-11-27T22:32:53;99474.88;;;0.79;91.27
55191;BME280;41070;50.360;18.742;2022-11-27T22:35:29;99473.10;;;0.81;91.36
55191;BME280;41070;50.360;18.742;2022-11-27T22:38:06;99466.77;;;0.81;91.19
55191;BME280;41070;50.360;18.742;2022-11-27T22:40:39;99472.15;;;0.81;91.09
55191;BME280;41070;50.360;18.742;2022-11-27T22:43:11;99476.64;;;0.82;90.99
55191;BME280;41070;50.360;18.742;2022-11-27T22:45:43;99474.37;;;0.83;90.99
55191;BME280;41070;50.360;18.742;2022-11-27T22:48:17;99473.77;;;0.81;90.81
55191;BME280;41070;50.360;18.742;2022-11-27T22:50:57;99477.41;;;0.79;90.39
55191;BME280;41070;50.360;18.742;2022-11-27T22:53:29;99477.36;;;0.78;91.10
55191;BME280;41070;50.360;18.742;2022-11-27T22:56:05;99480.25;;;0.78;90.77
55191;BME280;41070;50.360;18.742;2022-11-27T22:58:40;99479.20;;;0.76;90.80
55191;BME280;41070;50.360;18.742;2022-11-27T23:01:19;99477.81;;;0.75;90.65
55191;BME280;41070;50.360;18.742;2022-11-27T23:03:52;99473.27;;;0.73;90.97
55191;BME280;41070;50.360;18.742;2022-11-27T23:06:24;99475.39;;;0.76;90.80
55191;BME280;41070;50.360;18.742;2022-11-27T23:08:56;99475.67;;;0.79;90.80
55191;BME280;41070;50.360;18.742;2022-11-27T23:11:27;99476.77;;;0.79;90.72
55191;BME280;41070;50.360;18.742;2022-11-27T23:13:59;99480.16;;;0.81;90.87
55191;BME280;41070;50.360;18.742;2022-11-27T23:16:30;99483.31;;;0.81;90.66
55191;BME280;41070;50.360;18.742;2022-11-27T23:19:01;99483.61;;;0.78;90.30
55191;BME280;41070;50.360;18.742;2022-11-27T23:21:32;99482.09;;;0.76;90.13
55191;BME280;41070;50.360;18.742;2022-11-27T23:24:10;99478.11;;;0.74;90.17
55191;BME280;41070;50.360;18.742;2022-11-27T23:26:42;99478.37;;;0.73;90.49
55191;BME280;41070;50.360;18.742;2022-11-27T23:29:11;99481.44;;;0.74;90.67
55191;BME280;41070;50.360;18.742;2022-11-27T23:31:44;99480.81;;;0.75;90.41
55191;BME280;41070;50.360;18.742;2022-11-27T23:34:15;99477.80;;;0.74;90.36
55191;BME280;41070;50.360;18.742;2022-11-27T23:36:46;99475.52;;;0.74;90.22
55191;BME280;41070;50.360;18.742;2022-11-27T23:39:17;99476.83;;;0.70;90.04
55191;BME280;41070;50.360;18.742;2022-11-27T23:41:49;99482.40;;;0.67;90.18
55191;BME280;41070;50.360;18.742;2022-11-27T23:44:22;99478.74;;;0.64;90.11
55191;BME280;41070;50.360;18.742;2022-11-27T23:46:53;99477.94;;;0.61;90.50
55191;BME280;41070;50.360;18.742;2022-11-27T23:49:24;99470.29;;;0.60;90.09
55191;BME280;41070;50.360;18.742;2022-11-27T23:51:56;99470.23;;;0.58;89.97
55191;BME280;41070;50.360;18.742;2022-11-27T23:54:28;99471.48;;;0.56;90.41
55191;BME280;41070;50.360;18.742;2022-11-27T23:56:59;99466.84;;;0.55;90.36
55191;BME280;41070;50.360;18.742;2022-11-27T23:59:30;99460.48;;;0.57;90.49
